Terminal Aerodrome Forecast
Issued by NWS

Home | Current Version | Previous Version | Graphics & Text | Print | Product List | Glossary On
Versions: 1 2 3 4 5 6 7 8 9 10 11 12 13 14 15 16 17 18
166
FTUS43 KIWX 181722
TAFSBN
TAF
KSBN 181722Z 1818/1918 18011KT P6SM SCT015
     FM182200 17011KT P6SM FEW250
     FM190100 16012KT P6SM SCT250 WS020/18040KT
     FM190800 18010KT P6SM -RA OVC030 WS020/22040KT
     FM191100 19007KT 3SM RA OVC010 WS020/24040KT=

USA.gov is the U.S. government's official web portal to all federal, state and local government web resources and services.